Orbital elements of SL-8 DEB
| Launched | 11 February 1991 |
| Flight ended | – |
| Launch site | Plesetsk Missile and Space Complex, Russia |
| Owner | Commonwealth of Independent States (former USSR) |
| NORAD ID | 27744 |
| Date fetched |
Epoch osculation |
Inc. [°] |
Ecc. | RA asc node [hr] |
Arg Peri. [°] |
Mean anom [°] |
Mean motion [rev/day] |
Abs. mag |
| Date fetched |
Epoch osculation |
Inc. [°] |
Ecc. | RA asc node [hr] |
Arg Peri. [°] |
Mean anom [°] |
Mean motion [rev/day] |
Abs. mag |
| 2026 May 08 17:57 | 2026 May 05 03:52:21 | 74.0518 | 0.01754 | 19.7268 | 12.5542 | 40.6754 | 12.18607 | – |
| 2026 May 07 17:58 | 2026 May 05 03:52:21 | 74.0518 | 0.01754 | 19.7268 | 12.5542 | 40.6754 | 12.18607 | – |
| 2026 May 06 17:57 | 2026 May 05 03:52:21 | 74.0518 | 0.01754 | 19.7268 | 12.5542 | 40.6754 | 12.18607 | – |
| 2026 May 05 17:57 | 2026 May 05 03:52:21 | 74.0518 | 0.01754 | 19.7268 | 12.5542 | 40.6754 | 12.18607 | – |
| 2026 May 04 17:57 | 2026 Apr 30 11:26:00 | 74.0520 | 0.01753 | 20.1177 | 19.2173 | 40.6754 | 12.18607 | – |
| 2026 May 03 17:57 | 2026 Apr 30 11:26:00 | 74.0520 | 0.01753 | 20.1177 | 19.2173 | 40.6754 | 12.18607 | – |
| 2026 May 02 17:57 | 2026 Apr 30 11:26:00 | 74.0520 | 0.01753 | 20.1177 | 19.2173 | 40.6754 | 12.18607 | – |
| 2026 May 01 17:56 | 2026 Apr 30 11:26:00 | 74.0520 | 0.01753 | 20.1177 | 19.2173 | 40.6754 | 12.18607 | – |
| 2026 Apr 30 17:56 | 2026 Apr 30 11:26:00 | 74.0520 | 0.01753 | 20.1177 | 19.2173 | 40.6754 | 12.18607 | – |
| 2026 Apr 29 17:57 | 2026 Apr 24 11:56:06 | 74.0522 | 0.01753 | 20.6166 | 27.7149 | 40.6754 | 12.18607 | – |
| 2026 Apr 28 17:56 | 2026 Apr 24 11:56:06 | 74.0522 | 0.01753 | 20.6166 | 27.7149 | 40.6754 | 12.18607 | – |
| 2026 Apr 27 17:58 | 2026 Apr 24 11:56:06 | 74.0522 | 0.01753 | 20.6166 | 27.7149 | 40.6754 | 12.18607 | – |
| 2026 Apr 26 17:58 | 2026 Apr 24 11:56:06 | 74.0522 | 0.01753 | 20.6166 | 27.7149 | 40.6754 | 12.18607 | – |
| 2026 Apr 25 17:58 | 2026 Apr 24 11:56:06 | 74.0522 | 0.01753 | 20.6166 | 27.7149 | 40.6754 | 12.18607 | – |
| 2026 Apr 24 17:59 | 2026 Apr 24 11:56:06 | 74.0522 | 0.01753 | 20.6166 | 27.7149 | 40.6754 | 12.18607 | – |
| 2026 Apr 23 17:57 | 2026 Apr 19 13:24:57 | 74.0534 | 0.01752 | 21.0286 | 34.7138 | 40.6754 | 12.18607 | – |
| 2026 Apr 22 17:57 | 2026 Apr 19 13:24:57 | 74.0534 | 0.01752 | 21.0286 | 34.7138 | 40.6754 | 12.18607 | – |
| 2026 Apr 21 17:57 | 2026 Apr 19 13:24:57 | 74.0534 | 0.01752 | 21.0286 | 34.7138 | 40.6754 | 12.18607 | – |
| 2026 Apr 20 17:57 | 2026 Apr 19 13:24:57 | 74.0534 | 0.01752 | 21.0286 | 34.7138 | 40.6754 | 12.18607 | – |
| 2026 Apr 19 17:58 | 2026 Apr 19 13:24:57 | 74.0534 | 0.01752 | 21.0286 | 34.7138 | 40.6754 | 12.18607 | – |
| 2026 Apr 18 17:56 | 2026 Apr 13 02:29:27 | 74.0547 | 0.01752 | 21.5671 | 43.8894 | 40.6754 | 12.18607 | – |
| 2026 Apr 16 17:57 | 2026 Apr 13 02:29:27 | 74.0547 | 0.01752 | 21.5671 | 43.8894 | 40.6754 | 12.18607 | – |
| 2026 Apr 14 17:57 | 2026 Apr 13 02:29:27 | 74.0547 | 0.01752 | 21.5671 | 43.8894 | 40.6754 | 12.18607 | – |
| 2026 Apr 13 17:57 | 2026 Apr 13 02:29:27 | 74.0547 | 0.01752 | 21.5671 | 43.8894 | 40.6754 | 12.18607 | – |
| 2026 Apr 12 17:57 | 2026 Apr 08 09:37:26 | 74.0556 | 0.01751 | 21.9594 | 50.5685 | 40.6754 | 12.18607 | – |
| 2026 Apr 11 17:57 | 2026 Apr 08 09:37:26 | 74.0556 | 0.01751 | 21.9594 | 50.5685 | 40.6754 | 12.18607 | – |